createdAt,value
2023-08-31T00:01:05.434Z,100.00
2023-08-31T00:03:33.061Z,100.00
2023-08-31T00:06:03.359Z,100.00
2023-08-31T00:08:30.048Z,100.00
2023-08-31T00:11:01.441Z,100.00
2023-08-31T00:13:28.945Z,100.00
2023-08-31T00:15:58.439Z,100.00
2023-08-31T00:18:26.246Z,100.00
2023-08-31T00:20:53.034Z,100.00
2023-08-31T00:23:22.409Z,100.00
2023-08-31T00:25:49.237Z,100.00
2023-08-31T00:28:19.783Z,100.00
2023-08-31T00:30:47.360Z,100.00
2023-08-31T00:33:14.909Z,100.00
2023-08-31T00:35:47.024Z,100.00
2023-08-31T00:38:15.607Z,100.00
2023-08-31T00:40:46.842Z,100.00
2023-08-31T00:43:19.284Z,100.00
2023-08-31T00:45:49.936Z,100.00
2023-08-31T00:48:18.501Z,100.00
2023-08-31T00:50:46.786Z,100.00
2023-08-31T00:53:14.569Z,100.00
2023-08-31T00:55:41.371Z,100.00
2023-08-31T00:58:09.107Z,100.00
2023-08-31T01:00:55.651Z,100.00
2023-08-31T01:04:07.213Z,100.00
2023-08-31T01:06:48.313Z,100.00
2023-08-31T01:09:17.879Z,100.00
2023-08-31T01:11:59.475Z,100.00
2023-08-31T01:14:32.601Z,100.00
2023-08-31T01:17:00.692Z,100.00
2023-08-31T01:19:45.633Z,100.00
2023-08-31T01:22:22.658Z,100.00
2023-08-31T01:24:49.660Z,100.00
2023-08-31T01:27:17.283Z,100.00
2023-08-31T01:29:44.044Z,100.00
2023-08-31T01:32:10.996Z,100.00
2023-08-31T01:34:37.759Z,100.00
2023-08-31T01:37:21.809Z,100.00
2023-08-31T01:39:57.244Z,100.00
2023-08-31T01:42:27.330Z,100.00
2023-08-31T01:44:56.421Z,100.00
2023-08-31T01:47:23.339Z,100.00
2023-08-31T01:49:50.063Z,100.00
2023-08-31T01:52:16.723Z,100.00
2023-08-31T01:54:43.360Z,100.00
2023-08-31T01:57:09.991Z,100.00
2023-08-31T01:59:36.744Z,100.00
2023-08-31T02:02:03.645Z,100.00
2023-08-31T02:04:30.517Z,100.00
2023-08-31T02:06:57.260Z,100.00
2023-08-31T02:09:23.996Z,100.00
2023-08-31T02:11:50.763Z,100.00
2023-08-31T02:14:17.446Z,100.00
2023-08-31T02:16:44.247Z,100.00
2023-08-31T02:19:11.073Z,100.00
2023-08-31T02:21:37.747Z,100.00
2023-08-31T02:24:05.148Z,100.00
2023-08-31T02:26:31.824Z,100.00
2023-08-31T02:28:58.886Z,100.00
2023-08-31T02:31:26.037Z,100.00
2023-08-31T02:33:54.008Z,100.00
2023-08-31T02:36:21.569Z,100.00
2023-08-31T02:38:48.282Z,100.00
2023-08-31T02:41:14.927Z,100.00
2023-08-31T02:43:41.587Z,100.00
2023-08-31T02:46:08.227Z,100.00
2023-08-31T02:48:35.101Z,100.00
2023-08-31T02:51:02.398Z,100.00
2023-08-31T02:53:30.434Z,100.00
2023-08-31T02:55:57.889Z,100.00
2023-08-31T02:58:24.560Z,100.00
2023-08-31T03:00:51.248Z,100.00
2023-08-31T03:03:18.619Z,100.00
2023-08-31T03:05:45.917Z,100.00
2023-08-31T03:08:12.789Z,100.00
2023-08-31T03:10:40.104Z,100.00
2023-08-31T03:13:06.776Z,100.00
2023-08-31T03:15:37.199Z,100.00
2023-08-31T03:18:04.220Z,100.00
2023-08-31T03:20:31.029Z,100.00
2023-08-31T03:22:57.763Z,100.00
2023-08-31T03:25:25.459Z,100.00
2023-08-31T03:27:52.286Z,100.00
2023-08-31T03:30:19.111Z,100.00
2023-08-31T03:32:45.796Z,100.00
2023-08-31T03:35:12.913Z,100.00
2023-08-31T03:37:39.685Z,100.00
2023-08-31T03:40:07.788Z,100.00
2023-08-31T03:42:36.367Z,100.00
2023-08-31T03:45:04.637Z,100.00
2023-08-31T03:47:31.648Z,100.00
2023-08-31T03:49:58.411Z,100.00
2023-08-31T03:52:25.276Z,100.00
2023-08-31T03:54:53.633Z,100.00
2023-08-31T03:57:20.309Z,100.00
2023-08-31T03:59:47.264Z,100.00
2023-08-31T04:02:13.920Z,100.00
2023-08-31T04:04:40.692Z,100.00
2023-08-31T04:07:07.705Z,100.00
2023-08-31T04:09:34.828Z,100.00
2023-08-31T04:12:01.470Z,100.00
2023-08-31T04:14:28.666Z,100.00
2023-08-31T04:16:58.539Z,100.00
2023-08-31T04:19:25.246Z,100.00
2023-08-31T04:21:51.868Z,100.00
2023-08-31T04:24:18.679Z,100.00
2023-08-31T04:26:46.090Z,100.00
2023-08-31T04:29:12.747Z,100.00
2023-08-31T04:31:40.350Z,100.00
2023-08-31T04:34:07.254Z,100.00
2023-08-31T04:36:33.956Z,100.00
2023-08-31T04:39:00.659Z,100.00
2023-08-31T04:41:27.542Z,100.00
2023-08-31T04:43:54.479Z,100.00
2023-08-31T04:46:21.230Z,100.00
2023-08-31T04:48:47.924Z,100.00
2023-08-31T04:51:33.985Z,100.00
2023-08-31T04:54:01.502Z,100.00
2023-08-31T04:56:33.979Z,100.00
2023-08-31T04:59:01.287Z,100.00
2023-08-31T05:01:28.276Z,100.00
2023-08-31T05:03:55.027Z,100.00
2023-08-31T05:06:21.736Z,100.00
2023-08-31T05:08:49.305Z,100.00
2023-08-31T05:11:16.145Z,100.00
2023-08-31T05:13:45.331Z,100.00
2023-08-31T05:16:12.075Z,100.00
2023-08-31T05:18:39.528Z,100.00
2023-08-31T05:21:06.142Z,100.00
2023-08-31T05:23:32.858Z,100.00
2023-08-31T05:25:59.884Z,100.00
2023-08-31T05:28:26.885Z,100.00
2023-08-31T05:30:56.334Z,100.00
2023-08-31T05:33:30.241Z,100.00
2023-08-31T05:35:56.971Z,100.00
2023-08-31T05:38:24.664Z,100.00
2023-08-31T05:40:51.451Z,100.00
2023-08-31T05:43:18.128Z,100.00
2023-08-31T05:45:44.780Z,100.00
2023-08-31T05:48:11.582Z,100.00
2023-08-31T05:50:38.313Z,100.00
2023-08-31T05:53:06.583Z,100.00
2023-08-31T05:55:34.050Z,100.00
2023-08-31T05:58:01.833Z,100.00
2023-08-31T06:00:28.873Z,100.00
2023-08-31T06:02:55.635Z,100.00
2023-08-31T06:05:22.348Z,100.00
2023-08-31T06:07:49.263Z,100.00
2023-08-31T06:10:16.477Z,100.00
2023-08-31T06:12:43.239Z,100.00
2023-08-31T06:15:10.458Z,100.00
2023-08-31T06:17:37.218Z,100.00
2023-08-31T06:20:06.667Z,100.00
2023-08-31T06:22:33.621Z,100.00
2023-08-31T06:25:00.589Z,100.00
2023-08-31T06:27:27.356Z,100.00
2023-08-31T06:29:55.343Z,100.00
2023-08-31T06:32:21.924Z,100.00
2023-08-31T06:34:48.793Z,100.00
2023-08-31T06:37:15.462Z,100.00
2023-08-31T06:39:42.285Z,100.00
2023-08-31T06:42:09.045Z,100.00
2023-08-31T06:44:35.757Z,100.00
2023-08-31T06:47:02.687Z,100.00
2023-08-31T06:49:29.520Z,100.00
2023-08-31T06:51:56.541Z,100.00
2023-08-31T06:54:23.240Z,100.00
2023-08-31T06:56:49.853Z,100.00
2023-08-31T06:59:16.535Z,100.00
2023-08-31T07:01:43.246Z,100.00
2023-08-31T07:04:09.933Z,100.00
2023-08-31T07:06:37.152Z,100.00
2023-08-31T07:09:06.632Z,100.00
2023-08-31T07:11:33.358Z,100.00
2023-08-31T07:14:00.556Z,100.00
2023-08-31T07:16:27.320Z,100.00
2023-08-31T07:18:54.175Z,100.00
2023-08-31T07:21:21.109Z,100.00
2023-08-31T07:23:47.901Z,100.00
2023-08-31T07:26:14.662Z,100.00
2023-08-31T07:28:41.307Z,100.00
2023-08-31T07:31:08.512Z,100.00
2023-08-31T07:33:37.039Z,100.00
2023-08-31T07:36:06.469Z,100.00
2023-08-31T07:38:34.139Z,100.00
2023-08-31T07:41:01.628Z,100.00
2023-08-31T07:43:28.535Z,100.00
2023-08-31T07:45:55.373Z,100.00
2023-08-31T07:48:22.072Z,100.00
2023-08-31T07:50:50.020Z,100.00
2023-08-31T07:53:18.532Z,100.00
2023-08-31T07:55:55.674Z,100.00
2023-08-31T07:58:22.984Z,100.00
2023-08-31T08:00:50.303Z,100.00
2023-08-31T08:03:19.156Z,100.00
2023-08-31T08:05:45.911Z,100.00
2023-08-31T08:08:12.585Z,100.00
2023-08-31T08:10:39.681Z,98.34
2023-08-31T08:13:06.413Z,97.47
2023-08-31T08:15:33.273Z,100.00
2023-08-31T08:17:59.973Z,99.74
2023-08-31T08:20:26.803Z,97.84
2023-08-31T08:22:53.529Z,96.50
2023-08-31T08:25:23.701Z,95.58
2023-08-31T08:27:50.365Z,93.23
2023-08-31T08:30:17.050Z,93.40
2023-08-31T08:32:44.468Z,95.03
2023-08-31T08:35:11.160Z,93.24
2023-08-31T08:37:37.773Z,92.50
2023-08-31T08:40:07.563Z,92.48
2023-08-31T08:42:40.014Z,91.82
2023-08-31T08:45:09.792Z,90.32
2023-08-31T08:47:37.135Z,91.36
2023-08-31T08:50:05.830Z,90.73
2023-08-31T08:52:32.858Z,92.09
2023-08-31T08:55:02.108Z,92.43
2023-08-31T08:57:29.176Z,91.06
2023-08-31T08:59:55.880Z,89.58
2023-08-31T09:02:23.405Z,89.38
2023-08-31T09:04:52.437Z,90.06
2023-08-31T09:07:19.119Z,86.73
2023-08-31T09:09:53.608Z,83.98
2023-08-31T09:12:23.236Z,86.38
2023-08-31T09:15:05.803Z,83.16
2023-08-31T09:17:45.097Z,83.44
2023-08-31T09:20:12.059Z,81.75
2023-08-31T09:22:45.141Z,83.39
2023-08-31T09:25:11.974Z,81.14
2023-08-31T09:27:39.945Z,82.64
2023-08-31T09:30:07.998Z,83.57
2023-08-31T09:32:34.711Z,81.85
2023-08-31T09:35:16.330Z,80.32
2023-08-31T09:37:57.492Z,78.36
2023-08-31T09:40:25.264Z,77.43
2023-08-31T09:42:52.073Z,77.15
2023-08-31T09:48:05.723Z,77.72
2023-08-31T09:50:34.451Z,74.81
2023-08-31T09:53:05.792Z,73.55
2023-08-31T09:55:33.608Z,72.61
2023-08-31T09:58:15.075Z,74.79
2023-08-31T10:00:43.462Z,71.72
2023-08-31T10:03:15.913Z,70.32
2023-08-31T10:05:45.904Z,72.05
2023-08-31T10:08:12.974Z,68.97
2023-08-31T10:10:41.112Z,69.17
2023-08-31T10:13:08.517Z,68.78
2023-08-31T10:15:38.511Z,68.26
2023-08-31T10:18:08.995Z,69.35
2023-08-31T10:20:36.602Z,70.76
2023-08-31T10:23:08.219Z,71.34
2023-08-31T10:25:46.803Z,69.73
2023-08-31T10:28:20.594Z,69.62
2023-08-31T10:31:06.574Z,68.57
2023-08-31T10:33:35.259Z,68.77
2023-08-31T10:36:02.277Z,70.38
2023-08-31T10:38:33.806Z,70.10
2023-08-31T10:41:09.276Z,69.13
2023-08-31T10:43:52.915Z,68.63
2023-08-31T10:46:29.793Z,69.14
2023-08-31T10:49:00.821Z,68.67
2023-08-31T10:51:31.789Z,68.03
2023-08-31T10:54:16.600Z,67.80
2023-08-31T10:56:58.551Z,67.93
2023-08-31T10:59:26.918Z,68.31
2023-08-31T11:01:56.624Z,67.35
2023-08-31T11:04:25.255Z,67.29
2023-08-31T11:07:18.270Z,65.26
2023-08-31T11:09:46.712Z,65.23
2023-08-31T11:12:14.411Z,63.73
2023-08-31T11:14:41.284Z,63.68
2023-08-31T11:17:08.493Z,62.30
2023-08-31T11:19:36.685Z,60.34
2023-08-31T11:22:04.973Z,61.93
2023-08-31T11:24:33.253Z,62.41
2023-08-31T11:27:00.567Z,60.44
2023-08-31T11:29:29.210Z,59.37
2023-08-31T11:31:58.575Z,57.25
2023-08-31T11:34:25.418Z,57.05
2023-08-31T11:36:52.040Z,57.15
2023-08-31T11:39:19.075Z,58.18
2023-08-31T11:41:46.099Z,60.36
2023-08-31T11:44:15.119Z,58.42
2023-08-31T11:46:44.428Z,58.46
2023-08-31T11:49:11.452Z,60.51
2023-08-31T11:51:40.239Z,60.29
2023-08-31T11:54:07.114Z,59.03
2023-08-31T11:56:59.937Z,58.34
2023-08-31T11:59:26.677Z,58.16
2023-08-31T12:01:53.352Z,57.22
2023-08-31T12:04:24.085Z,56.97
2023-08-31T12:06:57.280Z,54.45
2023-08-31T12:09:24.083Z,53.43
2023-08-31T12:11:52.545Z,53.95
2023-08-31T12:14:23.917Z,50.42
2023-08-31T12:16:51.891Z,49.01
2023-08-31T12:19:18.930Z,50.95
2023-08-31T12:21:47.284Z,50.87
2023-08-31T12:24:14.366Z,50.81
2023-08-31T12:26:41.760Z,49.32
2023-08-31T12:29:08.643Z,50.04
2023-08-31T12:31:35.325Z,51.72
2023-08-31T12:34:05.792Z,49.57
2023-08-31T12:36:32.986Z,50.34
2023-08-31T12:39:02.533Z,50.90
2023-08-31T12:41:30.027Z,51.40
2023-08-31T12:43:57.419Z,49.52
2023-08-31T12:46:24.704Z,48.05
2023-08-31T12:48:51.767Z,48.69
2023-08-31T12:51:19.144Z,49.12
2023-08-31T12:53:47.079Z,49.96
2023-08-31T12:56:16.279Z,49.59
2023-08-31T12:58:42.911Z,49.19
2023-08-31T13:01:09.572Z,47.40
2023-08-31T13:03:36.287Z,47.18
2023-08-31T13:06:03.081Z,47.13
2023-08-31T13:08:29.905Z,47.70
2023-08-31T13:10:56.751Z,46.79
2023-08-31T13:13:23.582Z,45.99
2023-08-31T13:15:50.781Z,46.79
2023-08-31T13:18:17.748Z,48.93
2023-08-31T13:20:52.359Z,49.64
2023-08-31T13:23:19.520Z,47.56
2023-08-31T13:25:46.505Z,45.83
2023-08-31T13:28:13.496Z,45.77
2023-08-31T13:30:40.828Z,45.07
2023-08-31T13:33:08.237Z,44.05
2023-08-31T13:35:35.659Z,44.35
2023-08-31T13:38:03.938Z,45.76
2023-08-31T13:40:31.333Z,45.75
2023-08-31T13:43:04.228Z,47.43
2023-08-31T13:45:31.846Z,45.65
2023-08-31T13:48:01.169Z,47.07
2023-08-31T13:50:28.765Z,48.62
2023-08-31T13:52:55.581Z,46.87
2023-08-31T13:55:24.389Z,47.90
2023-08-31T13:57:51.064Z,47.02
2023-08-31T14:00:18.681Z,44.69
2023-08-31T14:02:46.119Z,45.83
2023-08-31T14:05:13.144Z,47.46
2023-08-31T14:07:40.175Z,45.85
2023-08-31T14:10:07.728Z,45.88
2023-08-31T14:12:34.911Z,47.09
2023-08-31T14:15:04.800Z,45.74
2023-08-31T14:17:32.694Z,46.78
2023-08-31T14:20:02.058Z,46.13
2023-08-31T14:22:29.638Z,45.77
2023-08-31T14:24:57.338Z,44.98
2023-08-31T14:27:26.921Z,47.22
2023-08-31T14:29:53.579Z,47.44
2023-08-31T14:32:20.259Z,47.56
2023-08-31T14:34:47.064Z,47.11
2023-08-31T14:37:13.682Z,45.16
2023-08-31T14:39:40.337Z,47.35
2023-08-31T14:42:07.085Z,45.65
2023-08-31T14:44:34.235Z,47.45
2023-08-31T14:47:00.941Z,46.69
2023-08-31T14:49:27.621Z,47.68
2023-08-31T14:51:54.287Z,47.40
2023-08-31T14:54:21.266Z,46.79
2023-08-31T14:56:47.958Z,44.33
2023-08-31T14:59:14.661Z,47.07
2023-08-31T15:01:41.399Z,46.77
2023-08-31T15:04:08.127Z,47.50
2023-08-31T15:06:34.926Z,47.62
2023-08-31T15:09:01.591Z,48.50
2023-08-31T15:11:29.500Z,47.18
2023-08-31T15:13:56.273Z,46.92
2023-08-31T15:16:24.312Z,46.56
2023-08-31T15:18:51.061Z,48.73
2023-08-31T15:21:18.427Z,47.63
2023-08-31T15:23:45.888Z,48.96
2023-08-31T15:26:14.525Z,48.99
2023-08-31T15:28:41.390Z,47.81
2023-08-31T15:31:08.162Z,48.56
2023-08-31T15:33:35.780Z,49.42
2023-08-31T15:36:06.764Z,50.42
2023-08-31T15:38:35.119Z,51.95
2023-08-31T15:41:02.817Z,52.09
2023-08-31T15:43:34.869Z,54.14
2023-08-31T15:46:02.600Z,54.43
2023-08-31T15:48:29.809Z,55.18
2023-08-31T15:50:57.683Z,56.21
2023-08-31T15:53:24.911Z,56.88
2023-08-31T15:55:51.813Z,57.62
2023-08-31T15:58:18.703Z,56.98
2023-08-31T16:00:45.727Z,57.15
2023-08-31T16:03:12.505Z,59.28
2023-08-31T16:05:39.797Z,59.52
2023-08-31T16:08:06.718Z,59.78
2023-08-31T16:10:33.677Z,59.88
2023-08-31T16:13:00.401Z,60.08
2023-08-31T16:15:28.645Z,60.85
2023-08-31T16:17:56.033Z,60.60
2023-08-31T16:20:22.893Z,60.70
2023-08-31T16:22:49.563Z,61.49
2023-08-31T16:25:19.074Z,60.55
2023-08-31T16:27:46.897Z,60.87
2023-08-31T16:30:17.297Z,61.63
2023-08-31T16:32:44.535Z,63.01
2023-08-31T16:35:15.219Z,62.24
2023-08-31T16:37:43.417Z,62.85
2023-08-31T16:40:11.660Z,63.18
2023-08-31T16:42:42.168Z,63.42
2023-08-31T16:45:10.361Z,63.15
2023-08-31T16:47:37.855Z,63.23
2023-08-31T16:50:05.670Z,63.73
2023-08-31T16:52:32.951Z,63.69
2023-08-31T16:55:00.299Z,65.14
2023-08-31T16:57:27.144Z,64.49
2023-08-31T16:59:54.022Z,65.14
2023-08-31T17:02:20.858Z,65.23
2023-08-31T17:04:48.078Z,65.59
2023-08-31T17:07:15.006Z,65.35
2023-08-31T17:09:42.634Z,65.51
2023-08-31T17:12:09.512Z,66.34
2023-08-31T17:14:36.539Z,65.88
2023-08-31T17:17:04.427Z,67.13
2023-08-31T17:19:31.042Z,66.04
2023-08-31T17:21:57.822Z,67.29
2023-08-31T17:24:24.459Z,66.39
2023-08-31T17:26:51.130Z,68.54
2023-08-31T17:29:17.789Z,69.18
2023-08-31T17:31:45.987Z,70.34
2023-08-31T17:34:17.309Z,71.77
2023-08-31T17:36:45.610Z,71.74
2023-08-31T17:39:13.654Z,73.96
2023-08-31T17:41:40.810Z,73.76
2023-08-31T17:44:07.626Z,74.76
2023-08-31T17:46:34.346Z,72.58
2023-08-31T17:49:01.092Z,73.57
2023-08-31T17:51:28.417Z,74.90
2023-08-31T17:53:57.719Z,75.09
2023-08-31T17:56:25.945Z,76.19
2023-08-31T17:58:53.015Z,77.34
2023-08-31T18:01:20.511Z,76.94
2023-08-31T18:03:47.403Z,78.34
2023-08-31T18:06:14.096Z,77.93
2023-08-31T18:08:47.417Z,78.17
2023-08-31T18:11:15.068Z,77.03
2023-08-31T18:13:42.262Z,77.68
2023-08-31T18:16:09.051Z,77.98
2023-08-31T18:18:35.830Z,78.32
2023-08-31T18:21:02.513Z,78.36
2023-08-31T18:23:29.209Z,79.23
2023-08-31T18:25:56.709Z,78.25
2023-08-31T18:28:23.517Z,79.33
2023-08-31T18:30:58.123Z,78.41
2023-08-31T18:33:28.890Z,78.02
2023-08-31T18:35:57.388Z,78.52
2023-08-31T18:38:27.749Z,80.71
2023-08-31T18:40:55.546Z,79.54
2023-08-31T18:43:24.866Z,80.01
2023-08-31T18:45:53.274Z,80.14
2023-08-31T18:48:20.376Z,80.38
2023-08-31T18:50:47.305Z,80.23
2023-08-31T18:53:13.972Z,79.64
2023-08-31T18:55:40.664Z,79.80
2023-08-31T18:58:07.399Z,84.15
2023-08-31T19:00:34.302Z,85.01
2023-08-31T19:03:01.556Z,85.02
2023-08-31T19:05:28.338Z,87.19
2023-08-31T19:07:55.140Z,87.18
2023-08-31T19:10:23.005Z,86.37
2023-08-31T19:12:50.703Z,86.39
2023-08-31T19:15:18.640Z,95.42
2023-08-31T19:17:47.227Z,94.55
2023-08-31T19:20:17.928Z,93.93
2023-08-31T19:22:48.098Z,93.88
2023-08-31T19:25:17.050Z,94.00
2023-08-31T19:27:43.842Z,95.14
2023-08-31T19:30:10.710Z,95.52
2023-08-31T19:32:37.605Z,96.98
2023-08-31T19:35:15.133Z,98.32
2023-08-31T19:37:53.281Z,98.24
2023-08-31T19:40:23.236Z,99.20
2023-08-31T19:42:51.418Z,98.64
2023-08-31T19:45:24.601Z,99.81
2023-08-31T19:47:52.821Z,99.16
2023-08-31T19:50:23.550Z,99.65
2023-08-31T19:52:51.683Z,100.00
2023-08-31T19:55:18.713Z,98.86
2023-08-31T19:57:45.432Z,99.41
2023-08-31T20:00:12.505Z,98.71
2023-08-31T20:02:39.254Z,100.00
2023-08-31T20:05:06.366Z,100.00
2023-08-31T20:07:33.316Z,100.00
2023-08-31T20:10:00.126Z,100.00
2023-08-31T20:12:26.877Z,100.00
2023-08-31T20:14:53.806Z,99.52
2023-08-31T20:17:20.487Z,99.89
2023-08-31T20:19:47.374Z,100.00
2023-08-31T20:22:14.015Z,100.00
2023-08-31T20:24:40.734Z,100.00
2023-08-31T20:27:07.922Z,99.66
2023-08-31T20:29:34.999Z,99.40
2023-08-31T20:32:04.993Z,99.60
2023-08-31T20:34:31.754Z,99.13
2023-08-31T20:37:01.371Z,99.37
2023-08-31T20:39:29.204Z,100.00
2023-08-31T20:41:56.059Z,99.02
2023-08-31T20:44:22.708Z,98.79
2023-08-31T20:46:49.472Z,99.84
2023-08-31T20:49:16.372Z,100.00
2023-08-31T20:51:44.252Z,100.00
2023-08-31T20:54:13.836Z,99.75
2023-08-31T20:56:40.865Z,100.00
2023-08-31T20:59:07.592Z,100.00
2023-08-31T21:01:34.311Z,99.44
2023-08-31T21:04:02.052Z,100.00
2023-08-31T21:06:29.281Z,100.00
2023-08-31T21:08:56.707Z,100.00
2023-08-31T21:11:24.734Z,100.00
2023-08-31T21:13:54.497Z,100.00
2023-08-31T21:16:21.601Z,100.00
2023-08-31T21:18:48.445Z,100.00
2023-08-31T21:21:15.290Z,100.00
2023-08-31T21:23:42.036Z,100.00
2023-08-31T21:26:09.042Z,100.00
2023-08-31T21:28:35.900Z,100.00
2023-08-31T21:31:04.499Z,100.00
2023-08-31T21:33:31.784Z,100.00
2023-08-31T21:36:04.440Z,100.00
2023-08-31T21:38:32.582Z,100.00
2023-08-31T21:41:05.690Z,100.00
2023-08-31T21:43:33.476Z,100.00
2023-08-31T21:46:01.050Z,100.00
2023-08-31T21:48:27.863Z,100.00
2023-08-31T21:50:54.607Z,100.00
2023-08-31T21:53:21.312Z,100.00
2023-08-31T21:55:48.057Z,100.00
2023-08-31T21:58:14.946Z,100.00
2023-08-31T22:00:41.904Z,100.00
2023-08-31T22:03:10.091Z,100.00
2023-08-31T22:05:37.200Z,100.00
2023-08-31T22:08:04.166Z,100.00
2023-08-31T22:10:30.938Z,100.00
2023-08-31T22:12:58.925Z,100.00
2023-08-31T22:15:27.073Z,100.00
2023-08-31T22:17:56.141Z,100.00
2023-08-31T22:20:31.370Z,100.00
2023-08-31T22:23:00.380Z,100.00
2023-08-31T22:25:29.381Z,100.00
2023-08-31T22:27:58.200Z,100.00
2023-08-31T22:30:26.111Z,100.00
2023-08-31T22:32:53.896Z,100.00
2023-08-31T22:35:20.719Z,100.00
2023-08-31T22:37:51.258Z,100.00
2023-08-31T22:40:18.092Z,100.00
2023-08-31T22:42:45.499Z,100.00
2023-08-31T22:45:12.699Z,100.00
2023-08-31T22:47:40.073Z,100.00
2023-08-31T22:50:09.660Z,100.00
2023-08-31T22:52:37.466Z,100.00
2023-08-31T22:55:05.175Z,100.00
2023-08-31T22:57:32.401Z,100.00
2023-08-31T22:59:59.321Z,100.00
2023-08-31T23:02:26.485Z,100.00
2023-08-31T23:04:53.554Z,100.00
2023-08-31T23:07:20.258Z,100.00
2023-08-31T23:09:46.866Z,100.00
2023-08-31T23:12:14.213Z,100.00
2023-08-31T23:14:41.062Z,100.00
2023-08-31T23:17:07.730Z,100.00
2023-08-31T23:19:34.503Z,100.00
2023-08-31T23:22:01.218Z,100.00
2023-08-31T23:24:28.404Z,100.00
2023-08-31T23:26:55.192Z,100.00
2023-08-31T23:29:21.950Z,100.00
2023-08-31T23:31:49.690Z,100.00
2023-08-31T23:34:16.753Z,100.00
2023-08-31T23:36:44.616Z,100.00
2023-08-31T23:39:11.732Z,100.00
2023-08-31T23:41:40.240Z,100.00
2023-08-31T23:44:06.972Z,100.00
2023-08-31T23:46:33.806Z,100.00
2023-08-31T23:49:00.592Z,100.00
2023-08-31T23:51:28.140Z,100.00
2023-08-31T23:53:56.266Z,100.00
2023-08-31T23:56:23.329Z,100.00
2023-08-31T23:58:50.173Z,100.00
